createdAt,value
2018-02-12T00:00:46.834Z,3.92
2018-02-12T00:01:46.751Z,3.94
2018-02-12T00:02:46.667Z,3.94
2018-02-12T00:03:46.580Z,3.91
2018-02-12T00:04:46.499Z,3.95
2018-02-12T00:05:46.411Z,4.08
2018-02-12T00:06:46.342Z,3.96
2018-02-12T00:07:46.247Z,4.01
2018-02-12T00:08:46.156Z,3.95
2018-02-12T00:09:46.070Z,3.95
2018-02-12T00:10:45.987Z,3.88
2018-02-12T00:11:45.901Z,3.96
2018-02-12T00:12:45.817Z,3.94
2018-02-12T00:13:45.732Z,3.95
2018-02-12T00:14:45.657Z,3.92
2018-02-12T00:15:45.564Z,3.84
2018-02-12T00:16:45.488Z,3.95
2018-02-12T00:17:45.391Z,3.95
2018-02-12T00:18:45.310Z,3.87
2018-02-12T00:19:45.222Z,3.91
2018-02-12T00:20:45.138Z,3.92
2018-02-12T00:21:45.053Z,3.94
2018-02-12T00:22:44.982Z,3.81
2018-02-12T00:23:44.899Z,3.77
2018-02-12T00:24:44.811Z,3.70
2018-02-12T00:25:44.720Z,3.81
2018-02-12T00:26:44.627Z,3.77
2018-02-12T00:27:44.545Z,3.78
2018-02-12T00:28:44.457Z,3.80
2018-02-12T00:29:44.375Z,3.78
2018-02-12T00:30:44.293Z,3.80
2018-02-12T00:31:44.212Z,3.76
2018-02-12T00:32:44.117Z,3.74
2018-02-12T00:33:44.036Z,3.65
2018-02-12T00:34:43.968Z,3.66
2018-02-12T00:35:43.865Z,3.65
2018-02-12T00:36:43.776Z,3.62
2018-02-12T00:37:43.694Z,3.63
2018-02-12T00:38:43.609Z,3.62
2018-02-12T00:39:43.522Z,3.60
2018-02-12T00:40:43.440Z,3.66
2018-02-12T00:41:43.355Z,3.53
2018-02-12T00:42:43.267Z,3.55
2018-02-12T00:43:43.194Z,3.59
2018-02-12T00:44:43.155Z,3.59
2018-02-12T00:45:43.013Z,3.56
2018-02-12T00:46:42.927Z,3.58
2018-02-12T00:47:42.843Z,3.58
2018-02-12T00:48:42.757Z,3.51
2018-02-12T00:49:42.689Z,3.44
2018-02-12T00:50:42.590Z,3.56
2018-02-12T00:51:42.502Z,3.51
2018-02-12T00:52:42.439Z,3.51
2018-02-12T00:53:42.344Z,3.44
2018-02-12T00:54:42.264Z,3.45
2018-02-12T00:55:42.162Z,3.40
2018-02-12T00:56:42.075Z,3.36
2018-02-12T00:57:42.004Z,3.45
2018-02-12T00:58:41.907Z,3.37
2018-02-12T00:59:41.826Z,3.29
2018-02-12T01:00:41.746Z,3.41
2018-02-12T01:01:41.649Z,3.32
2018-02-12T01:02:41.569Z,3.25
2018-02-12T01:03:41.486Z,3.45
2018-02-12T01:04:41.393Z,3.29
2018-02-12T01:05:41.308Z,3.36
2018-02-12T01:06:41.226Z,3.26
2018-02-12T01:07:41.139Z,3.32
2018-02-12T01:08:41.052Z,3.29
2018-02-12T01:09:40.969Z,3.32
2018-02-12T01:10:40.885Z,3.31
2018-02-12T01:11:40.797Z,3.36
2018-02-12T01:12:40.732Z,3.29
2018-02-12T01:13:40.627Z,3.26
2018-02-12T01:14:40.542Z,3.37
2018-02-12T01:15:40.459Z,3.25
2018-02-12T01:16:40.370Z,3.26
2018-02-12T01:17:40.285Z,3.22
2018-02-12T01:18:40.201Z,3.11
2018-02-12T01:19:40.115Z,3.16
2018-02-12T01:20:40.031Z,3.21
2018-02-12T01:21:39.944Z,3.16
2018-02-12T01:22:39.859Z,3.19
2018-02-12T01:23:39.773Z,3.13
2018-02-12T01:24:39.694Z,3.11
2018-02-12T01:25:39.607Z,3.21
2018-02-12T01:26:39.515Z,3.13
2018-02-12T01:27:39.435Z,3.03
2018-02-12T01:28:39.345Z,3.11
2018-02-12T01:29:39.260Z,3.16
2018-02-12T01:30:39.174Z,3.07
2018-02-12T01:31:39.089Z,3.10
2018-02-12T01:32:39.012Z,3.05
2018-02-12T01:33:38.933Z,3.03
2018-02-12T01:34:38.836Z,3.11
2018-02-12T01:35:38.748Z,3.04
2018-02-12T01:36:38.681Z,3.01
2018-02-12T01:37:38.579Z,3.03
2018-02-12T01:38:38.492Z,3.08
2018-02-12T01:39:38.408Z,3.07
2018-02-12T01:40:38.318Z,3.05
2018-02-12T01:41:38.234Z,2.95
2018-02-12T01:42:38.170Z,3.04
2018-02-12T01:43:38.063Z,3.01
2018-02-12T01:44:37.977Z,3.07
2018-02-12T01:45:37.891Z,3.01
2018-02-12T01:46:37.806Z,2.98
2018-02-12T01:47:37.722Z,3.00
2018-02-12T01:48:37.638Z,3.11
2018-02-12T01:49:37.547Z,3.07
2018-02-12T01:50:37.468Z,3.11
2018-02-12T01:51:37.378Z,2.97
2018-02-12T01:52:37.311Z,3.01
2018-02-12T01:53:37.206Z,3.01
2018-02-12T01:54:37.128Z,3.00
2018-02-12T01:55:37.034Z,2.95
2018-02-12T01:56:36.949Z,3.07
2018-02-12T01:57:36.864Z,3.01
2018-02-12T01:58:36.779Z,3.01
2018-02-12T01:59:36.693Z,3.03
2018-02-12T02:00:36.608Z,3.03
2018-02-12T02:01:36.533Z,3.03
2018-02-12T02:02:36.436Z,2.97
2018-02-12T02:03:36.366Z,2.93
2018-02-12T02:04:36.264Z,2.97
2018-02-12T02:05:36.176Z,2.97
2018-02-12T02:06:36.091Z,2.87
2018-02-12T02:07:36.004Z,2.95
2018-02-12T02:08:35.921Z,2.92
2018-02-12T02:09:35.837Z,2.92
2018-02-12T02:10:35.747Z,2.93
2018-02-12T02:11:35.664Z,2.95
2018-02-12T02:12:35.579Z,2.92
2018-02-12T02:13:35.490Z,2.89
2018-02-12T02:14:35.410Z,2.92
2018-02-12T02:15:35.319Z,2.89
2018-02-12T02:16:35.233Z,2.89
2018-02-12T02:17:35.147Z,2.92
2018-02-12T02:18:35.061Z,2.83
2018-02-12T02:19:34.978Z,2.90
2018-02-12T02:20:34.888Z,2.92
2018-02-12T02:21:34.803Z,2.92
2018-02-12T02:22:34.722Z,2.93
2018-02-12T02:23:34.634Z,2.87
2018-02-12T02:24:34.567Z,3.00
2018-02-12T02:25:34.463Z,2.95
2018-02-12T02:26:34.376Z,2.97
2018-02-12T02:27:34.289Z,2.93
2018-02-12T02:28:34.203Z,3.07
2018-02-12T02:29:34.117Z,3.03
2018-02-12T02:30:34.038Z,3.05
2018-02-12T02:31:33.948Z,3.03
2018-02-12T02:32:33.859Z,3.04
2018-02-12T02:33:33.783Z,3.07
2018-02-12T02:34:33.688Z,2.95
2018-02-12T02:35:33.605Z,3.04
2018-02-12T02:36:33.517Z,2.98
2018-02-12T02:37:33.431Z,3.08
2018-02-12T02:38:33.346Z,3.11
2018-02-12T02:39:33.260Z,3.05
2018-02-12T02:40:33.179Z,3.10
2018-02-12T02:41:33.131Z,3.05
2018-02-12T02:42:33.007Z,3.00
2018-02-12T02:43:32.925Z,3.05
2018-02-12T02:44:32.838Z,3.04
2018-02-12T02:45:32.757Z,3.05
2018-02-12T02:46:32.662Z,3.07
2018-02-12T02:47:32.575Z,3.00
2018-02-12T02:48:32.489Z,3.11
2018-02-12T02:49:32.406Z,3.03
2018-02-12T02:50:32.319Z,3.04
2018-02-12T02:51:32.235Z,2.98
2018-02-12T02:52:32.146Z,3.04
2018-02-12T02:53:32.059Z,3.07
2018-02-12T02:54:31.978Z,2.98
2018-02-12T02:55:31.890Z,3.00
2018-02-12T02:56:31.805Z,3.07
2018-02-12T02:57:31.718Z,3.05
2018-02-12T02:58:31.633Z,3.07
2018-02-12T02:59:31.546Z,3.05
2018-02-12T03:00:31.461Z,2.95
2018-02-12T03:01:31.378Z,3.00
2018-02-12T03:02:31.293Z,3.04
2018-02-12T03:03:31.203Z,3.10
2018-02-12T03:04:31.120Z,3.05
2018-02-12T03:05:31.051Z,3.10
2018-02-12T03:06:30.949Z,3.01
2018-02-12T03:07:30.864Z,3.05
2018-02-12T03:08:30.777Z,3.10
2018-02-12T03:09:30.692Z,3.05
2018-02-12T03:10:30.604Z,3.08
2018-02-12T03:11:30.521Z,3.14
2018-02-12T03:12:30.439Z,3.03
2018-02-12T03:13:30.357Z,3.13
2018-02-12T03:14:30.270Z,3.10
2018-02-12T03:15:30.179Z,3.01
2018-02-12T03:16:30.094Z,3.08
2018-02-12T03:17:30.008Z,3.03
2018-02-12T03:18:29.921Z,3.08
2018-02-12T03:19:29.836Z,3.04
2018-02-12T03:20:29.751Z,3.04
2018-02-12T03:21:29.663Z,3.00
2018-02-12T03:22:29.579Z,3.05
2018-02-12T03:23:29.496Z,2.97
2018-02-12T03:24:29.411Z,2.95
2018-02-12T03:25:29.322Z,2.93
2018-02-12T03:26:29.237Z,2.89
2018-02-12T03:27:29.153Z,2.83
2018-02-12T03:28:29.066Z,2.89
2018-02-12T03:29:28.983Z,2.86
2018-02-12T03:30:28.896Z,2.92
2018-02-12T03:31:28.811Z,2.93
2018-02-12T03:32:28.727Z,2.93
2018-02-12T03:33:28.637Z,2.98
2018-02-12T03:34:28.552Z,3.03
2018-02-12T03:35:28.466Z,3.04
2018-02-12T03:36:28.387Z,3.00
2018-02-12T03:37:28.294Z,3.03
2018-02-12T03:38:28.210Z,3.03
2018-02-12T03:39:28.124Z,2.98
2018-02-12T03:40:28.037Z,2.95
2018-02-12T03:41:27.956Z,3.07
2018-02-12T03:42:27.867Z,3.05
2018-02-12T03:43:27.783Z,3.05
2018-02-12T03:44:27.696Z,3.05
2018-02-12T03:45:27.610Z,3.19
2018-02-12T03:46:27.537Z,3.05
2018-02-12T03:47:27.440Z,3.16
2018-02-12T03:48:27.352Z,3.22
2018-02-12T03:49:27.267Z,3.18
2018-02-12T03:50:27.190Z,3.18
2018-02-12T03:51:27.101Z,3.18
2018-02-12T03:52:27.016Z,3.19
2018-02-12T03:53:26.930Z,3.25
2018-02-12T03:54:26.849Z,3.26
2018-02-12T03:55:26.768Z,3.25
2018-02-12T03:56:26.669Z,3.19
2018-02-12T03:57:26.585Z,3.26
2018-02-12T03:58:26.497Z,3.22
2018-02-12T03:59:26.417Z,3.19
2018-02-12T04:00:26.331Z,3.21
2018-02-12T04:01:26.250Z,3.19
2018-02-12T04:02:26.159Z,3.16
2018-02-12T04:03:26.074Z,3.16
2018-02-12T04:04:25.988Z,3.25
2018-02-12T04:05:25.903Z,3.21
2018-02-12T04:06:25.817Z,3.10
2018-02-12T04:07:25.737Z,3.04
2018-02-12T04:08:25.643Z,3.16
2018-02-12T04:09:25.559Z,3.11
2018-02-12T04:10:25.474Z,3.03
2018-02-12T04:11:25.391Z,3.07
2018-02-12T04:12:25.312Z,3.03
2018-02-12T04:13:25.222Z,3.01
2018-02-12T04:14:25.178Z,3.07
2018-02-12T04:15:25.066Z,3.04
2018-02-12T04:16:24.961Z,3.07
2018-02-12T04:17:24.875Z,3.03
2018-02-12T04:18:24.790Z,3.00
2018-02-12T04:19:24.702Z,3.04
2018-02-12T04:20:24.618Z,3.01
2018-02-12T04:21:24.535Z,3.04
2018-02-12T04:22:24.446Z,3.05
2018-02-12T04:23:24.366Z,3.04
2018-02-12T04:24:24.297Z,3.03
2018-02-12T04:25:24.207Z,3.04
2018-02-12T04:26:24.106Z,3.04
2018-02-12T04:27:24.024Z,3.00
2018-02-12T04:28:23.934Z,2.98
2018-02-12T04:29:23.847Z,3.04
2018-02-12T04:30:23.762Z,3.11
2018-02-12T04:31:23.702Z,3.05
2018-02-12T04:32:23.591Z,3.07
2018-02-12T04:33:24.504Z,2.98
2018-02-12T04:34:23.423Z,3.10
2018-02-12T04:35:23.336Z,3.16
2018-02-12T04:36:23.251Z,3.16
2018-02-12T04:37:23.162Z,3.07
2018-02-12T04:38:23.077Z,3.10
2018-02-12T04:39:22.993Z,3.18
2018-02-12T04:40:22.907Z,3.07
2018-02-12T04:41:22.823Z,3.11
2018-02-12T04:42:22.735Z,3.07
2018-02-12T04:43:22.701Z,3.07
2018-02-12T04:44:22.564Z,3.10
2018-02-12T04:45:22.479Z,3.11
2018-02-12T04:46:22.395Z,3.04
2018-02-12T04:47:22.308Z,3.04
2018-02-12T04:48:22.223Z,3.10
2018-02-12T04:49:22.139Z,3.14
2018-02-12T04:50:22.053Z,3.07
2018-02-12T04:51:21.966Z,3.14
2018-02-12T04:52:21.880Z,3.11
2018-02-12T04:53:21.796Z,3.11
2018-02-12T04:54:21.713Z,3.11
2018-02-12T04:55:21.625Z,3.23
2018-02-12T04:56:21.536Z,3.19
2018-02-12T04:57:21.451Z,3.14
2018-02-12T04:58:21.369Z,3.16
2018-02-12T04:59:21.284Z,3.16
2018-02-12T05:00:21.198Z,3.16
2018-02-12T05:01:21.112Z,3.14
2018-02-12T05:02:21.027Z,3.19
2018-02-12T05:03:20.942Z,3.18
2018-02-12T05:04:20.854Z,3.19
2018-02-12T05:05:20.771Z,3.19
2018-02-12T05:06:20.686Z,3.16
2018-02-12T05:07:20.599Z,3.16
2018-02-12T05:08:20.512Z,3.10
2018-02-12T05:09:20.430Z,3.19
2018-02-12T05:10:20.343Z,3.18
2018-02-12T05:11:20.257Z,3.25
2018-02-12T05:12:20.172Z,3.25
2018-02-12T05:13:20.090Z,3.18
2018-02-12T05:14:19.999Z,3.21
2018-02-12T05:15:19.919Z,3.11
2018-02-12T05:16:19.853Z,3.11
2018-02-12T05:17:19.749Z,3.07
2018-02-12T05:18:19.658Z,3.07
2018-02-12T05:19:19.573Z,3.13
2018-02-12T05:20:19.490Z,3.11
2018-02-12T05:21:19.400Z,3.01
2018-02-12T05:22:19.318Z,3.03
2018-02-12T05:23:19.233Z,3.04
2018-02-12T05:24:19.147Z,3.08
2018-02-12T05:25:19.060Z,3.07
2018-02-12T05:26:18.977Z,3.08
2018-02-12T05:27:18.890Z,3.11
2018-02-12T05:28:18.805Z,3.05
2018-02-12T05:29:18.718Z,3.04
2018-02-12T05:30:18.633Z,3.08
2018-02-12T05:31:18.547Z,3.04
2018-02-12T05:32:18.464Z,3.03
2018-02-12T05:33:18.379Z,3.05
2018-02-12T05:34:18.296Z,3.10
2018-02-12T05:35:18.210Z,3.03
2018-02-12T05:36:18.121Z,2.98
2018-02-12T05:37:18.055Z,3.01
2018-02-12T05:38:17.947Z,3.00
2018-02-12T05:39:17.863Z,3.05
2018-02-12T05:40:17.776Z,3.03
2018-02-12T05:41:17.704Z,3.00
2018-02-12T05:42:17.615Z,2.93
2018-02-12T05:43:17.525Z,2.85
2018-02-12T05:44:17.437Z,2.85
2018-02-12T05:45:17.352Z,2.92
2018-02-12T05:46:17.285Z,2.82
2018-02-12T05:47:17.178Z,2.77
2018-02-12T05:48:17.090Z,2.83
2018-02-12T05:49:17.004Z,2.74
2018-02-12T05:50:16.922Z,2.75
2018-02-12T05:51:16.835Z,2.72
2018-02-12T05:52:16.747Z,2.75
2018-02-12T05:53:16.663Z,2.75
2018-02-12T05:54:16.576Z,2.72
2018-02-12T05:55:16.492Z,2.74
2018-02-12T05:56:16.406Z,2.72
2018-02-12T05:57:16.320Z,2.67
2018-02-12T05:58:16.234Z,2.68
2018-02-12T05:59:16.148Z,2.64
2018-02-12T06:00:16.063Z,2.62
2018-02-12T06:01:15.976Z,2.64
2018-02-12T06:02:15.888Z,2.67
2018-02-12T06:03:15.804Z,2.68
2018-02-12T06:04:15.716Z,2.57
2018-02-12T06:05:15.631Z,2.61
2018-02-12T06:06:15.562Z,2.56
2018-02-12T06:07:15.459Z,2.56
2018-02-12T06:08:15.387Z,2.60
2018-02-12T06:09:15.288Z,2.54
2018-02-12T06:10:15.201Z,2.53
2018-02-12T06:11:15.117Z,2.57
2018-02-12T06:12:15.033Z,2.51
2018-02-12T06:13:14.941Z,2.56
2018-02-12T06:14:14.858Z,2.57
2018-02-12T06:15:14.770Z,2.43
2018-02-12T06:16:14.685Z,2.47
2018-02-12T06:17:14.618Z,2.49
2018-02-12T06:18:14.513Z,2.46
2018-02-12T06:19:14.427Z,2.49
2018-02-12T06:20:14.351Z,2.53
2018-02-12T06:21:14.255Z,2.46
2018-02-12T06:22:14.169Z,2.53
2018-02-12T06:23:14.082Z,2.44
2018-02-12T06:24:13.994Z,2.47
2018-02-12T06:25:13.910Z,2.47
2018-02-12T06:26:13.825Z,2.49
2018-02-12T06:27:13.739Z,2.42
2018-02-12T06:28:13.666Z,2.49
2018-02-12T06:29:13.564Z,2.49
2018-02-12T06:30:13.479Z,2.43
2018-02-12T06:31:13.392Z,2.53
2018-02-12T06:32:13.307Z,2.53
2018-02-12T06:33:13.221Z,2.44
2018-02-12T06:34:13.139Z,2.60
2018-02-12T06:35:13.053Z,2.57
2018-02-12T06:36:12.961Z,2.47
2018-02-12T06:37:12.899Z,2.46
2018-02-12T06:38:12.789Z,2.56
2018-02-12T06:39:12.703Z,2.46
2018-02-12T06:40:12.625Z,2.57
2018-02-12T06:41:12.549Z,2.61
2018-02-12T06:42:12.445Z,2.60
2018-02-12T06:43:12.360Z,2.51
2018-02-12T06:44:12.273Z,2.61
2018-02-12T06:45:12.187Z,2.57
2018-02-12T06:46:12.103Z,2.57
2018-02-12T06:47:12.016Z,2.57
2018-02-12T06:48:11.948Z,2.53
2018-02-12T06:49:11.853Z,2.60
2018-02-12T06:50:11.767Z,2.56
2018-02-12T06:51:11.672Z,2.60
2018-02-12T06:52:11.586Z,2.56
2018-02-12T06:53:11.500Z,2.54
2018-02-12T06:54:11.413Z,2.56
2018-02-12T06:55:11.337Z,2.57
2018-02-12T06:56:11.241Z,2.61
2018-02-12T06:57:11.154Z,2.57
2018-02-12T06:58:11.069Z,2.61
2018-02-12T06:59:11.019Z,2.69
2018-02-12T07:00:10.901Z,2.71
2018-02-12T07:01:10.821Z,2.62
2018-02-12T07:02:10.729Z,2.60
2018-02-12T07:03:10.638Z,2.60
2018-02-12T07:04:10.551Z,2.57
2018-02-12T07:05:10.465Z,2.65
2018-02-12T07:06:10.391Z,2.64
2018-02-12T07:07:10.296Z,2.54
2018-02-12T07:08:10.210Z,2.71
2018-02-12T07:09:10.121Z,2.60
2018-02-12T07:10:10.051Z,2.57
2018-02-12T07:11:09.953Z,2.54
2018-02-12T07:12:09.871Z,2.54
2018-02-12T07:13:09.782Z,2.60
2018-02-12T07:14:09.692Z,2.57
2018-02-12T07:15:09.611Z,2.67
2018-02-12T07:16:09.522Z,2.61
2018-02-12T07:17:09.435Z,2.61
2018-02-12T07:18:09.351Z,2.62
2018-02-12T07:19:09.263Z,2.56
2018-02-12T07:20:09.197Z,2.51
2018-02-12T07:21:09.092Z,2.60
2018-02-12T07:22:09.006Z,2.54
2018-02-12T07:23:08.919Z,2.53
2018-02-12T07:24:08.837Z,2.53
2018-02-12T07:25:08.747Z,2.61
2018-02-12T07:26:08.662Z,2.57
2018-02-12T07:27:08.578Z,2.64
2018-02-12T07:28:08.513Z,2.60
2018-02-12T07:29:08.403Z,2.57
2018-02-12T07:30:08.317Z,2.67
2018-02-12T07:31:08.233Z,2.62
2018-02-12T07:32:08.156Z,2.67
2018-02-12T07:33:08.062Z,2.79
2018-02-12T07:34:07.975Z,2.79
2018-02-12T07:35:07.888Z,2.77
2018-02-12T07:36:07.803Z,2.79
2018-02-12T07:37:07.761Z,2.77
2018-02-12T07:38:07.634Z,2.71
2018-02-12T07:39:07.549Z,2.69
2018-02-12T07:40:07.460Z,2.79
2018-02-12T07:41:07.374Z,2.77
2018-02-12T07:42:07.308Z,2.85
2018-02-12T07:43:07.206Z,2.83
2018-02-12T07:44:07.116Z,2.85
2018-02-12T07:45:07.030Z,2.85
2018-02-12T07:46:06.945Z,2.77
2018-02-12T07:47:06.863Z,2.79
2018-02-12T07:48:06.775Z,2.77
2018-02-12T07:49:06.688Z,2.80
2018-02-12T07:50:06.601Z,2.75
2018-02-12T07:51:06.520Z,2.80
2018-02-12T07:52:06.441Z,2.83
2018-02-12T07:53:06.344Z,2.93
2018-02-12T07:54:06.292Z,2.87
2018-02-12T07:55:06.177Z,2.89
2018-02-12T07:56:06.113Z,2.97
2018-02-12T07:57:06.006Z,2.92
2018-02-12T07:58:05.920Z,2.97
2018-02-12T07:59:05.841Z,2.92
2018-02-12T08:00:05.747Z,2.92
2018-02-12T08:01:05.662Z,2.95
2018-02-12T08:02:05.575Z,3.04
2018-02-12T08:03:05.494Z,3.04
2018-02-12T08:04:05.403Z,3.03
2018-02-12T08:05:05.318Z,3.05
2018-02-12T08:06:05.237Z,3.01
2018-02-12T08:07:05.149Z,3.01
2018-02-12T08:08:05.062Z,2.89
2018-02-12T08:09:04.977Z,2.95
2018-02-12T08:10:04.895Z,3.00
2018-02-12T08:11:04.829Z,3.08
2018-02-12T08:12:04.770Z,3.04
2018-02-12T08:13:04.634Z,3.04
2018-02-12T08:14:04.552Z,3.07
2018-02-12T08:15:04.464Z,3.07
2018-02-12T08:16:04.391Z,2.97
2018-02-12T08:17:04.295Z,2.97
2018-02-12T08:18:04.207Z,3.10
2018-02-12T08:19:04.127Z,3.10
2018-02-12T08:20:04.037Z,3.11
2018-02-12T08:21:03.956Z,3.07
2018-02-12T08:22:03.868Z,3.14
2018-02-12T08:23:03.796Z,3.21
2018-02-12T08:24:03.695Z,3.14
2018-02-12T08:25:03.610Z,3.16
2018-02-12T08:26:03.526Z,3.19
